AAL2456 KCLT-KOMA
Flight info
| Callsign | AAL2456 |
|---|---|
| Flight time | 2h 23m |
| Altitude | 38000 |
| Route | JOJJO5 CUBIM Q50 HELUB EMBRR WIDAM BAYLI ELYNA LMN MARWI4 |
| Aircraft | B738/M-SDE2E3FGHIRWXY/LB1 |
Departure
| Time | 2026-04-24 16:31 |
|---|---|
| Airport | Charlotte Douglas International Airport (KCLT) |
Arrival
| Time | 2026-04-24 18:54 |
|---|---|
| Airport | Eppley Airfield (KOMA) |
| Time | Latitude | Longitude | Altitude | Speed | Heading |
|---|---|---|---|---|---|
| 2026-04-24 15:48 | 35.21791 | -80.94478 | 731 ft | 0 kts | 288° |
| 2026-04-24 16:18 | 35.21788 | -80.94468 | 730 ft | 4 kts | 288° |
| 2026-04-24 16:18 | 35.21780 | -80.94437 | 731 ft | 4 kts | 285° |
| 2026-04-24 16:19 | 35.21786 | -80.94383 | 730 ft | 4 kts | 189° |
| 2026-04-24 16:19 | 35.21806 | -80.94383 | 729 ft | 3 kts | 176° |
| 2026-04-24 16:20 | 35.21811 | -80.94383 | 730 ft | 0 kts | 176° |
| 2026-04-24 16:26 | 35.21803 | -80.94383 | 731 ft | 7 kts | 176° |
| 2026-04-24 16:26 | 35.21639 | -80.94449 | 731 ft | 14 kts | 250° |
| 2026-04-24 16:27 | 35.21624 | -80.94578 | 731 ft | 16 kts | 264° |
| 2026-04-24 16:27 | 35.21616 | -80.94714 | 731 ft | 16 kts | 266° |
| 2026-04-24 16:27 | 35.21609 | -80.94853 | 732 ft | 16 kts | 266° |
| 2026-04-24 16:27 | 35.21604 | -80.94988 | 732 ft | 16 kts | 287° |
| 2026-04-24 16:28 | 35.21698 | -80.95029 | 733 ft | 16 kts | 355° |
| 2026-04-24 16:28 | 35.21823 | -80.95040 | 733 ft | 20 kts | 356° |
| 2026-04-24 16:28 | 35.22113 | -80.95065 | 733 ft | 22 kts | 356° |
| 2026-04-24 16:29 | 35.22265 | -80.95077 | 733 ft | 22 kts | 355° |
| 2026-04-24 16:29 | 35.22413 | -80.95091 | 733 ft | 21 kts | 356° |
| 2026-04-24 16:29 | 35.22704 | -80.95123 | 733 ft | 21 kts | 332° |
| 2026-04-24 16:30 | 35.22652 | -80.95311 | 740 ft | 0 kts | 176° |
| 2026-04-24 16:30 | 35.22651 | -80.95311 | 740 ft | 2 kts | 176° |
| 2026-04-24 16:31 | 35.22456 | -80.95295 | 739 ft | 69 kts | 176° |
| 2026-04-24 16:31 | 35.21694 | -80.95229 | 741 ft | 148 kts | 176° |
| 2026-04-24 16:31 | 35.20462 | -80.95126 | 934 ft | 202 kts | 176° |
| 2026-04-24 16:31 | 35.18949 | -80.95022 | 1421 ft | 230 kts | 176° |
| 2026-04-24 16:32 | 35.17857 | -80.94941 | 1780 ft | 244 kts | 176° |
| 2026-04-24 16:32 | 35.15551 | -80.94766 | 2446 ft | 250 kts | 177° |
| 2026-04-24 16:32 | 35.13800 | -80.94631 | 2907 ft | 253 kts | 175° |
| 2026-04-24 16:32 | 35.12025 | -80.94505 | 3357 ft | 257 kts | 176° |
| 2026-04-24 16:33 | 35.10233 | -80.94525 | 3814 ft | 260 kts | 189° |
| 2026-04-24 16:33 | 35.08549 | -80.95309 | 4293 ft | 260 kts | 213° |
| 2026-04-24 16:33 | 35.07230 | -80.96837 | 4824 ft | 268 kts | 235° |
| 2026-04-24 16:33 | 35.06449 | -80.98901 | 5347 ft | 270 kts | 257° |
| 2026-04-24 16:34 | 35.06214 | -81.01146 | 5840 ft | 272 kts | 272° |
| 2026-04-24 16:34 | 35.06602 | -81.03387 | 6373 ft | 264 kts | 295° |
| 2026-04-24 16:34 | 35.07612 | -81.05208 | 6881 ft | 265 kts | 316° |
| 2026-04-24 16:34 | 35.09151 | -81.06526 | 7386 ft | 271 kts | 332° |
| 2026-04-24 16:35 | 35.10832 | -81.07591 | 7890 ft | 279 kts | 334° |
| 2026-04-24 16:35 | 35.12569 | -81.08636 | 8390 ft | 279 kts | 334° |
| 2026-04-24 16:35 | 35.14329 | -81.09677 | 8885 ft | 281 kts | 334° |
| 2026-04-24 16:35 | 35.16091 | -81.10715 | 9398 ft | 283 kts | 333° |
| 2026-04-24 16:36 | 35.17870 | -81.11740 | 9918 ft | 284 kts | 334° |
| 2026-04-24 16:36 | 35.19628 | -81.12943 | 10201 ft | 300 kts | 329° |
| 2026-04-24 16:36 | 35.21592 | -81.14091 | 10433 ft | 327 kts | 336° |
| 2026-04-24 16:36 | 35.23728 | -81.15240 | 10971 ft | 339 kts | 334° |
| 2026-04-24 16:37 | 35.25874 | -81.16484 | 11786 ft | 343 kts | 333° |
| 2026-04-24 16:37 | 35.28015 | -81.17768 | 12705 ft | 344 kts | 333° |
| 2026-04-24 16:37 | 35.29450 | -81.18635 | 13257 ft | 346 kts | 332° |
| 2026-04-24 16:37 | 35.32362 | -81.20399 | 14281 ft | 353 kts | 332° |
| 2026-04-24 16:38 | 35.34583 | -81.21741 | 14997 ft | 356 kts | 332° |
| 2026-04-24 16:38 | 35.36818 | -81.23077 | 15769 ft | 359 kts | 332° |
| 2026-04-24 16:38 | 35.39070 | -81.24425 | 16511 ft | 362 kts | 332° |
| 2026-04-24 16:38 | 35.41342 | -81.25787 | 17251 ft | 365 kts | 332° |
| 2026-04-24 16:39 | 35.43511 | -81.27420 | 17929 ft | 368 kts | 321° |
| 2026-04-24 16:39 | 35.45416 | -81.29535 | 18522 ft | 373 kts | 312° |
| 2026-04-24 16:39 | 35.47009 | -81.32065 | 19104 ft | 376 kts | 304° |
| 2026-04-24 16:39 | 35.48464 | -81.34667 | 19751 ft | 376 kts | 304° |
| 2026-04-24 16:40 | 35.49957 | -81.37320 | 20358 ft | 380 kts | 304° |
| 2026-04-24 16:40 | 35.51481 | -81.39990 | 20923 ft | 383 kts | 304° |
| 2026-04-24 16:40 | 35.53020 | -81.42679 | 21500 ft | 386 kts | 304° |
| 2026-04-24 16:40 | 35.54565 | -81.45382 | 22076 ft | 389 kts | 305° |
| 2026-04-24 16:41 | 35.56062 | -81.48159 | 22629 ft | 391 kts | 300° |
| 2026-04-24 16:41 | 35.57351 | -81.51118 | 23175 ft | 394 kts | 297° |
| 2026-04-24 16:41 | 35.58581 | -81.54151 | 23691 ft | 397 kts | 296° |
| 2026-04-24 16:41 | 35.59832 | -81.57192 | 24146 ft | 400 kts | 297° |
| 2026-04-24 16:42 | 35.61114 | -81.60243 | 24600 ft | 402 kts | 297° |
| 2026-04-24 16:42 | 35.62421 | -81.63295 | 25036 ft | 405 kts | 298° |
| 2026-04-24 16:42 | 35.63748 | -81.66360 | 25495 ft | 407 kts | 298° |
| 2026-04-24 16:42 | 35.65085 | -81.69441 | 25949 ft | 409 kts | 298° |
| 2026-04-24 16:43 | 35.66423 | -81.72531 | 26371 ft | 411 kts | 298° |
| 2026-04-24 16:43 | 35.67754 | -81.75612 | 26770 ft | 414 kts | 298° |
| 2026-04-24 16:43 | 35.69105 | -81.78746 | 27162 ft | 416 kts | 298° |
| 2026-04-24 16:43 | 35.70460 | -81.81896 | 27554 ft | 419 kts | 297° |
| 2026-04-24 16:44 | 35.71826 | -81.85074 | 27939 ft | 421 kts | 297° |
| 2026-04-24 16:44 | 35.73203 | -81.88268 | 28316 ft | 424 kts | 299° |
| 2026-04-24 16:44 | 35.74837 | -81.91295 | 28670 ft | 427 kts | 308° |
| 2026-04-24 16:44 | 35.76838 | -81.94022 | 29027 ft | 430 kts | 316° |
| 2026-04-24 16:45 | 35.79149 | -81.96375 | 29388 ft | 433 kts | 321° |
| 2026-04-24 16:45 | 35.81551 | -81.98633 | 29738 ft | 435 kts | 321° |
| 2026-04-24 16:45 | 35.83976 | -82.00885 | 30063 ft | 438 kts | 322° |
| 2026-04-24 16:45 | 35.86417 | -82.03154 | 30334 ft | 440 kts | 321° |
| 2026-04-24 16:46 | 35.88828 | -82.05409 | 30626 ft | 441 kts | 321° |
| 2026-04-24 16:46 | 35.91266 | -82.07705 | 30991 ft | 440 kts | 321° |
| 2026-04-24 16:46 | 35.93690 | -82.09999 | 31440 ft | 438 kts | 321° |
| 2026-04-24 16:46 | 35.96094 | -82.12283 | 31901 ft | 435 kts | 321° |
| 2026-04-24 16:47 | 35.98491 | -82.14565 | 32299 ft | 433 kts | 321° |
| 2026-04-24 16:47 | 36.00880 | -82.16843 | 32717 ft | 431 kts | 321° |
| 2026-04-24 16:47 | 36.03252 | -82.19107 | 33203 ft | 428 kts | 321° |
| 2026-04-24 16:47 | 36.05579 | -82.21331 | 33532 ft | 427 kts | 321° |
| 2026-04-24 16:48 | 36.07935 | -82.23584 | 33869 ft | 427 kts | 321° |
| 2026-04-24 16:48 | 36.10291 | -82.25835 | 34119 ft | 427 kts | 321° |
| 2026-04-24 16:48 | 36.12640 | -82.28085 | 34446 ft | 426 kts | 321° |
| 2026-04-24 16:48 | 36.14973 | -82.30320 | 34778 ft | 424 kts | 321° |
| 2026-04-24 16:49 | 36.17306 | -82.32558 | 35059 ft | 424 kts | 321° |
| 2026-04-24 16:49 | 36.19635 | -82.34792 | 35313 ft | 425 kts | 321° |
| 2026-04-24 16:49 | 36.21968 | -82.37032 | 35594 ft | 424 kts | 321° |
| 2026-04-24 16:49 | 36.24299 | -82.39271 | 35888 ft | 423 kts | 321° |
| 2026-04-24 16:50 | 36.25842 | -82.40755 | 36092 ft | 423 kts | 321° |
| 2026-04-24 16:50 | 36.28939 | -82.43734 | 36486 ft | 421 kts | 321° |
| 2026-04-24 16:50 | 36.31260 | -82.45970 | 36740 ft | 421 kts | 321° |
| 2026-04-24 16:50 | 36.33576 | -82.48202 | 36966 ft | 422 kts | 321° |
| 2026-04-24 16:51 | 36.35892 | -82.50437 | 37160 ft | 422 kts | 321° |
| 2026-04-24 16:51 | 36.38204 | -82.52668 | 37396 ft | 421 kts | 321° |
| 2026-04-24 16:51 | 36.40518 | -82.54904 | 37640 ft | 421 kts | 321° |
| 2026-04-24 16:51 | 36.42799 | -82.57109 | 37861 ft | 421 kts | 321° |
| 2026-04-24 16:52 | 36.45111 | -82.59347 | 37969 ft | 423 kts | 321° |
| 2026-04-24 16:52 | 36.47471 | -82.61633 | 37964 ft | 425 kts | 321° |
| 2026-04-24 16:52 | 36.52109 | -82.66128 | 37956 ft | 423 kts | 321° |
| 2026-04-24 16:53 | 36.56728 | -82.70613 | 37953 ft | 419 kts | 321° |
| 2026-04-24 16:53 | 36.61310 | -82.75070 | 37955 ft | 417 kts | 321° |
| 2026-04-24 16:54 | 36.65098 | -82.78760 | 37964 ft | 415 kts | 321° |
| 2026-04-24 16:54 | 36.70374 | -82.83906 | 37965 ft | 414 kts | 321° |
| 2026-04-24 16:55 | 36.74913 | -82.88339 | 37966 ft | 415 kts | 321° |
| 2026-04-24 16:55 | 36.78758 | -82.92030 | 37963 ft | 416 kts | 322° |
| 2026-04-24 16:56 | 36.83317 | -82.96385 | 37966 ft | 416 kts | 322° |
| 2026-04-24 16:56 | 36.87701 | -83.01095 | 37962 ft | 416 kts | 311° |
| 2026-04-24 16:57 | 36.90983 | -83.07038 | 37981 ft | 417 kts | 302° |
| 2026-04-24 16:57 | 36.93988 | -83.13245 | 37965 ft | 417 kts | 302° |
| 2026-04-24 16:58 | 36.97029 | -83.19422 | 37963 ft | 417 kts | 303° |
| 2026-04-24 16:58 | 37.00051 | -83.25532 | 37955 ft | 416 kts | 303° |
| 2026-04-24 16:59 | 37.03089 | -83.31699 | 37952 ft | 415 kts | 303° |
| 2026-04-24 17:00 | 37.07623 | -83.40927 | 37953 ft | 414 kts | 303° |
| 2026-04-24 17:00 | 37.12129 | -83.50125 | 37952 ft | 412 kts | 303° |
| 2026-04-24 17:01 | 37.16611 | -83.59296 | 37944 ft | 410 kts | 304° |
| 2026-04-24 17:02 | 37.21046 | -83.68398 | 37956 ft | 409 kts | 304° |
| 2026-04-24 17:02 | 37.24015 | -83.74504 | 37956 ft | 409 kts | 304° |
| 2026-04-24 17:03 | 37.28464 | -83.83677 | 37946 ft | 410 kts | 304° |
| 2026-04-24 17:04 | 37.31426 | -83.89798 | 37955 ft | 410 kts | 304° |
| 2026-04-24 17:04 | 37.35866 | -83.98994 | 37945 ft | 410 kts | 304° |
| 2026-04-24 17:05 | 37.38806 | -84.05098 | 37950 ft | 411 kts | 304° |
| 2026-04-24 17:06 | 37.43249 | -84.14344 | 37960 ft | 412 kts | 303° |
| 2026-04-24 17:06 | 37.47684 | -84.23600 | 37969 ft | 412 kts | 303° |
| 2026-04-24 17:07 | 37.50635 | -84.29790 | 37959 ft | 412 kts | 303° |
| 2026-04-24 17:08 | 37.56472 | -84.42131 | 37948 ft | 411 kts | 302° |
| 2026-04-24 17:08 | 37.59397 | -84.48329 | 37963 ft | 411 kts | 302° |
| 2026-04-24 17:09 | 37.65239 | -84.60743 | 37961 ft | 410 kts | 302° |
| 2026-04-24 17:10 | 37.71030 | -84.73090 | 37967 ft | 410 kts | 301° |
| 2026-04-24 17:12 | 37.81180 | -84.98938 | 37925 ft | 411 kts | 297° |
| 2026-04-24 18:54 | 41.30172 | -95.89901 | 989 ft | 0 kts | 163° |